Time;durP1;ratioP1;P1;durP2;ratioP2;P2;SDS_P1;SDS_P2;PMS_P1;PMS_P2;Temp;Humidity;BMP_temperature;BMP_pressure;BME280_temperature;BME280_humidity;BME280_pressure;Samples;Min_cycle;Max_cycle;Signal;HPM_P1;HPM_P2
2022/12/22 03:26:58;;;;;;;19.27;5.97;;;2.00;99.90;;;;;;4936821;29;20034;-94
2022/12/22 03:29:24;;;;;;;13.35;5.43;;;2.00;99.90;;;;;;4935101;29;20118;-95
2022/12/22 03:31:49;;;;;;;18.00;5.82;;;2.00;99.90;;;;;;4935049;29;20457;-95
2022/12/22 03:34:15;;;;;;;15.07;5.47;;;2.00;99.90;;;;;;4935179;29;20039;-94
2022/12/22 03:36:41;;;;;;;12.20;5.93;;;2.00;99.90;;;;;;4935748;29;20394;-94
2022/12/22 03:39:06;;;;;;;15.00;4.82;;;2.00;99.90;;;;;;4936626;29;20058;-94
2022/12/22 03:47:00;;;;;;;13.82;5.90;;;2.10;99.90;;;;;;4952142;29;20091;-95
2022/12/22 03:49:26;;;;;;;14.52;5.47;;;2.00;99.90;;;;;;4940468;29;20032;-93
2022/12/22 03:51:52;;;;;;;14.45;5.05;;;2.10;99.90;;;;;;4944701;29;20413;-95
2022/12/22 03:54:21;;;;;;;15.73;5.07;;;2.00;99.90;;;;;;4946411;29;20103;-94
2022/12/22 03:56:47;;;;;;;14.68;5.15;;;2.10;99.90;;;;;;4946251;29;20024;-94
2022/12/22 03:59:14;;;;;;;16.75;4.60;;;2.00;99.90;;;;;;4942763;29;20031;-95
2022/12/22 04:01:42;;;;;;;13.82;5.22;;;2.00;99.90;;;;;;4941234;29;20024;-94
2022/12/22 04:04:09;;;;;;;24.90;6.30;;;1.90;99.90;;;;;;4948926;29;20071;-95
2022/12/22 04:06:35;;;;;;;61.85;7.38;;;1.80;99.90;;;;;;4947732;29;20035;-94
2022/12/22 04:09:00;;;;;;;54.65;7.65;;;1.70;99.90;;;;;;4944981;29;20031;-92
2022/12/22 04:14:10;;;;;;;17.50;5.88;;;1.50;99.90;;;;;;4944051;29;20079;-95
2022/12/22 04:16:36;;;;;;;16.20;5.60;;;1.50;99.90;;;;;;4942555;29;20035;-96
2022/12/22 04:19:02;;;;;;;12.52;5.80;;;1.50;99.90;;;;;;4942694;29;20036;-95
2022/12/22 04:21:28;;;;;;;13.93;5.60;;;1.50;99.90;;;;;;4943137;29;20032;-95
2022/12/22 04:23:54;;;;;;;12.80;4.88;;;1.60;99.90;;;;;;4943996;29;20136;-94
2022/12/22 04:26:21;;;;;;;17.85;5.85;;;1.70;99.90;;;;;;4944738;29;20023;-95
2022/12/22 04:28:46;;;;;;;18.50;4.88;;;1.70;99.90;;;;;;4944756;29;20059;-95
2022/12/22 04:31:12;;;;;;;19.48;5.85;;;1.80;99.90;;;;;;4944643;29;20072;-96
2022/12/22 04:33:38;;;;;;;20.40;7.90;;;1.80;99.90;;;;;;4945571;29;20039;-94
2022/12/22 04:36:05;;;;;;;16.50;7.15;;;1.70;99.90;;;;;;4943237;29;20127;-95
2022/12/22 04:38:30;;;;;;;15.40;7.10;;;1.60;99.90;;;;;;4943288;29;20140;-94
2022/12/22 04:40:56;;;;;;;13.45;6.07;;;1.50;99.90;;;;;;4943239;29;20051;-94
2022/12/22 04:43:22;;;;;;;12.20;6.07;;;1.50;99.90;;;;;;4943440;29;20035;-94
2022/12/22 04:45:55;;;;;;;12.35;5.85;;;1.50;99.90;;;;;;4944538;29;20028;-94
2022/12/22 04:48:22;;;;;;;12.70;5.78;;;1.40;99.90;;;;;;4948196;29;20612;-93
2022/12/22 04:50:53;;;;;;;20.13;7.32;;;1.40;99.90;;;;;;4950290;29;20035;-95
2022/12/22 04:53:19;;;;;;;15.85;6.38;;;1.40;99.90;;;;;;4948571;29;20043;-95
2022/12/22 04:55:50;;;;;;;23.80;6.85;;;1.40;99.90;;;;;;4944549;29;20107;-95
2022/12/22 04:58:16;;;;;;;15.82;6.93;;;1.40;99.90;;;;;;4941047;29;20031;-95
2022/12/22 05:00:42;;;;;;;18.25;7.22;;;1.40;99.90;;;;;;4940912;29;20035;-95
2022/12/22 05:03:08;;;;;;;19.33;7.20;;;1.40;99.90;;;;;;4942213;29;20027;-94
2022/12/22 05:05:34;;;;;;;18.90;7.13;;;1.30;99.90;;;;;;4941764;29;20036;-95
2022/12/22 05:08:01;;;;;;;16.55;7.63;;;1.30;99.90;;;;;;4940349;29;20023;-94
2022/12/22 05:10:26;;;;;;;13.48;5.70;;;1.30;99.90;;;;;;4939537;29;20031;-95
2022/12/22 05:12:55;;;;;;;18.88;6.50;;;1.30;99.90;;;;;;4948005;29;20098;-93
2022/12/22 05:15:30;;;;;;;16.15;7.55;;;1.30;99.90;;;;;;4938755;29;20052;-94
2022/12/22 05:17:57;;;;;;;18.20;6.85;;;1.30;99.90;;;;;;4939184;29;20056;-96
2022/12/22 05:20:23;;;;;;;10.20;5.78;;;1.30;99.90;;;;;;4940041;29;20024;-96
2022/12/22 05:22:48;;;;;;;17.98;6.85;;;1.30;99.90;;;;;;4938843;29;20039;-95
2022/12/22 05:25:15;;;;;;;14.05;6.43;;;1.30;99.90;;;;;;4939811;29;20541;-96
2022/12/22 05:27:43;;;;;;;18.55;7.38;;;1.40;99.90;;;;;;4939339;29;20035;-95
2022/12/22 05:30:10;;;;;;;20.88;7.25;;;1.40;99.90;;;;;;4939355;29;20024;-94
2022/12/22 05:32:35;;;;;;;16.83;6.75;;;1.40;99.90;;;;;;4938229;29;20042;-94
2022/12/22 05:35:02;;;;;;;13.50;5.82;;;1.40;99.90;;;;;;4937574;29;20055;-95
2022/12/22 05:37:28;;;;;;;15.60;6.65;;;1.50;99.90;;;;;;4936949;29;20035;-95
2022/12/22 05:39:54;;;;;;;16.02;6.15;;;1.50;99.90;;;;;;4936885;29;20028;-94
2022/12/22 05:42:34;;;;;;;20.98;7.55;;;1.70;99.90;;;;;;4938219;29;20095;-95
2022/12/22 05:45:14;;;;;;;18.48;6.93;;;1.80;99.90;;;;;;4940514;29;20058;-95
2022/12/22 05:47:47;;;;;;;19.60;7.97;;;1.90;99.90;;;;;;4941808;29;20032;-95
2022/12/22 05:50:15;;;;;;;20.02;7.40;;;1.90;99.90;;;;;;4941744;29;20086;-96
2022/12/22 05:52:41;;;;;;;25.13;8.20;;;1.90;99.90;;;;;;4940528;29;20446;-95
2022/12/22 05:55:07;;;;;;;20.70;6.85;;;1.90;99.90;;;;;;4941827;29;20028;-96
2022/12/22 05:57:33;;;;;;;12.80;5.30;;;1.80;99.90;;;;;;4941809;29;20031;-95
2022/12/22 05:59:59;;;;;;;21.98;7.57;;;1.80;99.90;;;;;;4940548;29;20023;-96
2022/12/22 06:02:25;;;;;;;15.93;6.85;;;1.80;99.90;;;;;;4940005;29;20499;-96
2022/12/22 06:04:50;;;;;;;19.98;8.45;;;1.80;99.90;;;;;;4939821;29;20059;-95
2022/12/22 06:07:16;;;;;;;21.17;7.40;;;1.90;99.90;;;;;;4940284;29;20031;-95
2022/12/22 06:09:42;;;;;;;23.45;8.88;;;1.90;99.90;;;;;;4941222;29;20040;-94
2022/12/22 06:12:08;;;;;;;15.95;7.82;;;2.00;99.90;;;;;;4942759;29;20047;-95
2022/12/22 06:14:34;;;;;;;17.10;6.80;;;2.00;99.90;;;;;;4949470;29;20062;-96
2022/12/22 06:17:01;;;;;;;20.63;7.85;;;2.00;99.90;;;;;;4952293;29;20059;-95
2022/12/22 06:19:27;;;;;;;18.92;7.85;;;2.00;99.90;;;;;;4951024;29;20014;-95
2022/12/22 06:21:52;;;;;;;16.70;6.68;;;2.10;99.90;;;;;;4949977;29;20034;-95
2022/12/22 06:24:18;;;;;;;19.67;9.30;;;2.10;99.90;;;;;;4950551;29;20465;-95
2022/12/22 06:26:45;;;;;;;17.63;8.07;;;2.20;99.90;;;;;;4951490;29;20016;-96
2022/12/22 06:29:10;;;;;;;17.02;7.78;;;2.20;99.90;;;;;;4933295;29;20486;-95
2022/12/22 06:31:36;;;;;;;18.42;7.78;;;2.20;99.90;;;;;;4946900;29;20051;-96
2022/12/22 06:34:02;;;;;;;21.92;9.77;;;2.20;99.90;;;;;;4945520;29;20059;-95
2022/12/22 06:36:28;;;;;;;21.20;9.65;;;2.20;99.90;;;;;;4936737;29;20025;-96
2022/12/22 06:38:53;;;;;;;19.92;9.02;;;2.20;99.90;;;;;;4916480;29;20064;-95
2022/12/22 06:43:07;;;;;;;18.90;7.55;;;2.30;99.90;;;;;;4930988;29;20028;-96
2022/12/22 06:44:06;;;;;;;21.30;8.32;;;2.30;99.90;;;;;;4933793;29;20032;-95
2022/12/22 06:46:32;;;;;;;18.58;8.20;;;2.30;99.90;;;;;;4937165;29;20017;-95
2022/12/22 06:48:58;;;;;;;19.38;7.70;;;2.30;99.90;;;;;;4937908;29;20092;-95
2022/12/22 06:51:24;;;;;;;16.15;7.07;;;2.30;99.90;;;;;;4940017;29;20046;-95
2022/12/22 06:53:49;;;;;;;17.13;8.10;;;2.30;99.90;;;;;;4949674;29;20028;-95
2022/12/22 06:56:15;;;;;;;19.75;7.75;;;2.30;99.90;;;;;;4948311;29;20028;-95
2022/12/22 06:58:41;;;;;;;26.60;9.30;;;2.30;99.90;;;;;;4950791;29;20103;-94
2022/12/22 07:01:09;;;;;;;12.32;7.07;;;2.40;99.90;;;;;;4949833;29;20035;-95
2022/12/22 07:03:34;;;;;;;21.65;9.02;;;2.40;99.90;;;;;;4946229;29;20055;-95
2022/12/22 07:06:00;;;;;;;18.75;7.47;;;2.50;99.90;;;;;;4937366;29;20024;-94
2022/12/22 07:08:26;;;;;;;28.30;9.35;;;2.50;99.90;;;;;;4935883;29;20050;-96
2022/12/22 07:10:57;;;;;;;14.75;6.93;;;2.50;99.90;;;;;;4935790;29;20457;-94
2022/12/22 07:13:32;;;;;;;20.08;7.45;;;2.50;99.90;;;;;;4935937;29;20043;-94
2022/12/22 07:15:59;;;;;;;19.23;7.97;;;2.50;99.90;;;;;;4932739;29;20040;-93
2022/12/22 07:18:24;;;;;;;18.40;7.28;;;2.50;99.90;;;;;;4937428;29;20034;-94
2022/12/22 07:20:50;;;;;;;19.20;7.32;;;2.40;99.90;;;;;;4939973;29;20020;-95
2022/12/22 07:23:16;;;;;;;18.98;7.68;;;2.50;99.90;;;;;;4939995;29;20030;-95
2022/12/22 07:25:41;;;;;;;14.43;6.80;;;2.50;99.90;;;;;;4943537;29;20027;-94
2022/12/22 07:28:07;;;;;;;17.45;7.55;;;2.60;99.90;;;;;;4944161;29;20504;-94
2022/12/22 07:30:35;;;;;;;15.57;7.70;;;2.60;99.90;;;;;;4940487;29;20055;-94
2022/12/22 07:33:02;;;;;;;15.13;7.13;;;2.60;99.90;;;;;;4940831;29;20031;-92
2022/12/22 07:35:28;;;;;;;24.83;10.95;;;2.70;99.90;;;;;;4939979;29;20032;-91
2022/12/22 07:37:53;;;;;;;21.98;9.95;;;2.70;99.90;;;;;;4940099;29;20042;-92
2022/12/22 07:40:19;;;;;;;24.10;11.00;;;2.70;99.90;;;;;;4940280;29;20039;-93
2022/12/22 07:42:45;;;;;;;22.45;9.55;;;2.80;99.90;;;;;;4937400;29;20031;-93
2022/12/22 07:45:16;;;;;;;18.00;8.55;;;2.80;99.90;;;;;;4939699;29;20087;-94
2022/12/22 07:47:42;;;;;;;24.00;10.50;;;2.80;99.90;;;;;;4939405;29;20128;-94
2022/12/22 07:50:26;;;;;;;18.08;8.60;;;2.80;99.90;;;;;;4939123;29;20095;-94
2022/12/22 07:52:54;;;;;;;25.63;11.15;;;2.90;99.90;;;;;;4936687;29;20130;-92
2022/12/22 07:55:20;;;;;;;32.47;11.25;;;2.90;99.90;;;;;;4938193;29;20087;-92
2022/12/22 07:57:46;;;;;;;23.38;9.85;;;3.00;99.90;;;;;;4938041;29;20398;-93
2022/12/22 08:00:13;;;;;;;17.88;8.65;;;3.00;99.90;;;;;;4937552;29;20032;-93
2022/12/22 08:02:39;;;;;;;22.00;9.63;;;3.10;99.90;;;;;;4938023;29;20500;-93
2022/12/22 08:05:06;;;;;;;30.23;12.70;;;3.10;99.90;;;;;;4946066;29;20028;-94
2022/12/22 08:07:32;;;;;;;23.38;10.48;;;3.20;99.90;;;;;;4938618;29;20043;-95
2022/12/22 08:09:58;;;;;;;23.45;10.25;;;3.20;99.90;;;;;;4938600;29;20016;-95
2022/12/22 08:12:28;;;;;;;21.00;9.15;;;3.20;99.90;;;;;;4947856;29;20032;-96
2022/12/22 08:14:54;;;;;;;25.73;9.23;;;3.20;99.90;;;;;;4951515;29;20501;-95
2022/12/22 08:17:20;;;;;;;19.20;9.02;;;3.20;99.90;;;;;;4946947;29;20028;-96
2022/12/22 08:19:47;;;;;;;21.90;8.48;;;3.20;99.90;;;;;;4944677;29;20055;-93
2022/12/22 08:22:17;;;;;;;18.38;8.93;;;3.30;99.90;;;;;;4947054;29;20020;-95
2022/12/22 08:24:43;;;;;;;19.23;8.70;;;3.30;99.90;;;;;;4952857;29;20023;-94
2022/12/22 08:27:13;;;;;;;15.25;6.95;;;3.40;99.90;;;;;;4958933;29;20031;-94
2022/12/22 08:29:51;;;;;;;15.43;7.63;;;3.40;99.90;;;;;;4959551;29;20035;-94
2022/12/22 08:35:44;;;;;;;26.70;12.27;;;3.50;99.90;;;;;;4940397;29;20055;-93
2022/12/22 08:38:14;;;;;;;21.13;8.65;;;3.50;99.90;;;;;;4936331;29;20023;-93
2022/12/22 08:40:59;;;;;;;28.20;11.35;;;3.50;99.90;;;;;;4957961;29;20028;-93
2022/12/22 08:43:25;;;;;;;22.83;11.43;;;3.40;99.90;;;;;;4952625;29;20027;-95
2022/12/22 08:45:51;;;;;;;23.10;10.85;;;3.40;99.90;;;;;;4955382;29;20032;-95
2022/12/22 08:48:16;;;;;;;21.58;9.93;;;3.40;99.90;;;;;;4950447;29;20027;-95
2022/12/22 08:50:48;;;;;;;18.33;9.88;;;3.40;99.90;;;;;;4948785;29;20027;-96
2022/12/22 08:53:13;;;;;;;25.45;11.73;;;3.40;99.90;;;;;;4947605;29;20067;-94
2022/12/22 08:55:39;;;;;;;31.92;11.27;;;3.50;99.90;;;;;;4949709;29;20075;-95
2022/12/22 08:58:05;;;;;;;27.35;10.02;;;3.50;99.90;;;;;;4947789;29;20187;-94
2022/12/22 09:00:31;;;;;;;22.13;10.18;;;3.50;99.90;;;;;;4952116;29;20028;-94
2022/12/22 09:02:57;;;;;;;20.63;9.85;;;3.60;99.90;;;;;;4953150;29;20028;-95
2022/12/22 09:05:23;;;;;;;28.63;11.32;;;3.60;99.90;;;;;;4945402;29;20043;-95
2022/12/22 09:07:48;;;;;;;20.00;10.32;;;3.60;99.90;;;;;;4944441;29;20031;-95
2022/12/22 09:10:14;;;;;;;23.75;10.13;;;3.60;99.90;;;;;;4942571;29;20451;-96
2022/12/22 09:12:43;;;;;;;15.80;8.60;;;3.70;99.90;;;;;;4941059;29;20038;-96
2022/12/22 09:15:09;;;;;;;17.90;8.82;;;3.70;99.90;;;;;;4940070;29;20067;-94
2022/12/22 09:17:36;;;;;;;16.63;8.95;;;3.70;99.90;;;;;;4939926;29;20031;-94
2022/12/22 09:20:04;;;;;;;18.30;9.00;;;3.70;99.90;;;;;;4940811;29;20028;-94
2022/12/22 09:22:31;;;;;;;16.50;8.52;;;3.80;99.90;;;;;;4939219;29;20114;-96
2022/12/22 09:24:56;;;;;;;18.25;8.75;;;3.80;99.90;;;;;;4939464;29;20111;-95
2022/12/22 09:27:25;;;;;;;17.08;8.43;;;3.80;99.90;;;;;;4941916;29;20054;-95
2022/12/22 09:29:51;;;;;;;20.45;10.00;;;3.80;99.90;;;;;;4937750;29;20020;-95
2022/12/22 09:32:16;;;;;;;31.45;11.43;;;3.90;99.90;;;;;;4938512;29;20043;-94
2022/12/22 09:34:48;;;;;;;23.25;10.20;;;3.90;99.90;;;;;;4937827;29;20075;-94
2022/12/22 09:37:15;;;;;;;24.25;10.93;;;3.90;99.90;;;;;;4937694;29;20481;-95
2022/12/22 09:39:40;;;;;;;23.92;12.00;;;4.00;99.90;;;;;;4942280;29;20072;-96
2022/12/22 09:42:13;;;;;;;26.42;10.52;;;4.00;99.90;;;;;;4939942;29;20489;-94
2022/12/22 09:44:45;;;;;;;21.05;8.95;;;4.10;99.90;;;;;;4937199;29;20624;-94
2022/12/22 09:47:36;;;;;;;22.85;10.65;;;4.00;99.90;;;;;;4930352;29;20035;-95
2022/12/22 09:50:04;;;;;;;21.63;10.00;;;4.10;99.90;;;;;;4936145;29;20109;-94
2022/12/22 09:52:43;;;;;;;20.45;11.02;;;4.10;99.90;;;;;;4936010;29;20035;-94
2022/12/22 09:55:33;;;;;;;26.67;11.32;;;4.20;99.90;;;;;;4936870;29;20060;-96
2022/12/22 09:57:59;;;;;;;24.45;10.48;;;4.20;99.90;;;;;;4931585;29;20568;-94
2022/12/22 10:00:28;;;;;;;21.80;9.50;;;4.30;99.90;;;;;;4936947;29;20114;-94
2022/12/22 10:03:03;;;;;;;22.65;10.05;;;4.30;99.90;;;;;;4949660;23;20065;-94
2022/12/22 10:05:53;;;;;;;22.52;10.68;;;4.30;99.90;;;;;;4948120;29;20040;-95
2022/12/22 10:08:30;;;;;;;25.92;10.60;;;4.40;99.90;;;;;;4946030;29;20031;-94
2022/12/22 10:10:55;;;;;;;31.80;11.98;;;4.50;99.90;;;;;;4953991;29;20019;-96
2022/12/22 10:13:21;;;;;;;34.22;12.07;;;4.60;99.90;;;;;;4945039;29;20042;-94
2022/12/22 10:15:51;;;;;;;26.95;11.88;;;4.70;99.90;;;;;;4942919;29;20083;-96
2022/12/22 10:18:24;;;;;;;35.28;13.30;;;4.80;99.90;;;;;;4935278;29;20031;-96
2022/12/22 10:21:13;;;;;;;45.92;18.75;;;4.80;99.90;;;;;;4946551;29;20062;-95
2022/12/22 10:23:43;;;;;;;54.35;21.63;;;4.90;99.90;;;;;;4954317;29;20057;-93
2022/12/22 10:26:20;;;;;;;58.73;23.50;;;4.80;99.90;;;;;;4952522;29;20023;-94
2022/12/22 10:28:49;;;;;;;37.00;17.15;;;4.80;99.90;;;;;;4948041;29;20551;-94
2022/12/22 10:31:38;;;;;;;38.40;15.38;;;4.80;99.90;;;;;;4947179;29;20031;-94
2022/12/22 10:34:14;;;;;;;65.20;21.80;;;4.80;99.90;;;;;;4952517;29;20062;-95
2022/12/22 10:37:02;;;;;;;46.22;18.90;;;4.70;99.90;;;;;;5074405;28;20485;-96
2022/12/22 10:39:31;;;;;;;43.90;19.80;;;4.70;99.90;;;;;;5073927;28;20100;-95
2022/12/22 10:42:15;;;;;;;45.42;23.02;;;4.70;99.90;;;;;;5071353;28;20025;-94
2022/12/22 10:44:47;;;;;;;47.17;20.27;;;4.70;99.90;;;;;;5070438;28;20107;-93
2022/12/22 10:47:49;;;;;;;43.28;20.60;;;4.70;99.90;;;;;;5069014;28;20047;-95
2022/12/22 10:50:16;;;;;;;41.53;17.88;;;4.70;99.90;;;;;;5088892;28;20043;-94
2022/12/22 10:52:54;;;;;;;49.97;20.70;;;4.70;99.90;;;;;;5092162;28;20035;-94
2022/12/22 10:55:27;;;;;;;50.97;22.95;;;4.70;99.90;;;;;;5088591;28;20035;-95
2022/12/22 10:58:09;;;;;;;85.72;34.28;;;4.70;99.90;;;;;;5090433;28;20048;-93
2022/12/22 11:00:36;;;;;;;51.13;23.92;;;4.80;99.90;;;;;;5089281;28;19997;-94
2022/12/22 11:03:06;;;;;;;58.90;29.58;;;4.80;99.90;;;;;;5071296;28;20036;-94
2022/12/22 11:05:32;;;;;;;72.28;27.67;;;4.80;99.90;;;;;;5060377;28;20017;-93
2022/12/22 11:08:33;;;;;;;54.65;21.63;;;4.90;99.90;;;;;;5058199;28;20021;-95
2022/12/22 11:11:04;;;;;;;50.58;20.70;;;4.90;99.90;;;;;;5047889;28;20478;-90
2022/12/22 11:14:01;;;;;;;;;;;4.90;99.90;;;;;;5048962;28;20041;-92
2022/12/22 11:16:27;;;;;;;147.68;44.65;;;5.00;99.90;;;;;;5052532;28;20011;-92
2022/12/22 11:18:55;;;;;;;154.40;54.25;;;5.00;99.90;;;;;;5048675;28;20144;-95
2022/12/22 11:21:32;;;;;;;94.97;35.53;;;5.00;99.90;;;;;;5049693;28;20032;-93
2022/12/22 11:24:20;;;;;;;88.57;33.35;;;5.10;99.90;;;;;;5064563;28;20017;-94
2022/12/22 11:27:23;;;;;;;80.72;28.98;;;5.20;99.90;;;;;;5051403;28;20033;-93
2022/12/22 11:30:43;;;;;;;58.97;23.40;;;5.20;99.90;;;;;;5050201;28;20041;-95
2022/12/22 11:33:34;;;;;;;34.13;15.70;;;5.30;99.90;;;;;;5055206;28;20029;-93
2022/12/22 11:36:03;;;;;;;34.75;15.43;;;5.30;99.90;;;;;;5047597;28;20053;-92
2022/12/22 11:38:40;;;;;;;33.58;14.85;;;5.40;99.90;;;;;;5048208;28;20025;-95
2022/12/22 11:41:15;;;;;;;35.70;14.90;;;5.40;99.90;;;;;;5048342;28;20025;-94
2022/12/22 11:44:18;;;;;;;34.42;15.23;;;5.40;99.90;;;;;;5048230;28;20038;-95
2022/12/22 11:46:50;;;;;;;103.38;36.20;;;5.50;99.90;;;;;;5040051;28;20030;-93
2022/12/22 11:49:40;;;;;;;94.15;34.83;;;5.50;99.90;;;;;;5033565;28;20034;-94
2022/12/22 11:52:06;;;;;;;100.78;36.42;;;5.50;99.90;;;;;;5048202;28;20024;-94
2022/12/22 11:54:59;;;;;;;71.70;28.38;;;5.50;99.90;;;;;;5034313;28;20135;-94
2022/12/22 11:57:31;;;;;;;48.92;19.70;;;5.60;99.90;;;;;;5033768;28;20037;-95
2022/12/22 12:00:04;;;;;;;46.00;18.85;;;5.60;99.90;;;;;;5051213;28;20037;-92
2022/12/22 12:02:56;;;;;;;57.53;24.55;;;5.60;99.90;;;;;;5042426;22;20081;-93
2022/12/22 12:05:41;;;;;;;59.88;25.83;;;5.70;99.90;;;;;;4995140;28;20037;-94
2022/12/22 12:08:32;;;;;;;99.65;37.40;;;5.70;99.90;;;;;;4988918;28;20472;-94
2022/12/22 12:11:26;;;;;;;59.97;21.98;;;5.70;99.90;;;;;;4993420;28;20038;-94
2022/12/22 12:14:13;;;;;;;69.07;24.05;;;5.70;99.90;;;;;;4993862;28;20026;-92
2022/12/22 12:16:45;;;;;;;48.22;18.88;;;5.70;99.90;;;;;;4992779;28;20057;-94
2022/12/22 12:19:17;;;;;;;40.42;18.05;;;5.80;99.90;;;;;;4988048;28;20026;-94
2022/12/22 12:21:59;;;;;;;49.05;18.92;;;5.70;99.90;;;;;;4990976;28;20026;-94
2022/12/22 12:24:42;;;;;;;37.63;16.42;;;5.80;99.90;;;;;;4975789;28;20031;-94
2022/12/22 12:27:46;;;;;;;45.78;17.13;;;5.80;99.90;;;;;;4991304;28;20038;-93
2022/12/22 12:30:15;;;;;;;38.83;16.48;;;5.80;99.90;;;;;;4992521;28;20063;-93
2022/12/22 12:32:56;;;;;;;44.35;17.30;;;5.80;99.90;;;;;;4993469;28;20042;-94
2022/12/22 12:35:28;;;;;;;38.20;15.50;;;5.80;99.90;;;;;;4998027;28;20038;-91
2022/12/22 12:38:01;;;;;;;119.28;48.08;;;5.80;99.90;;;;;;4995380;28;20042;-93
2022/12/22 12:41:01;;;;;;;65.22;27.30;;;5.90;99.90;;;;;;4976644;28;20023;-93
2022/12/22 12:43:27;;;;;;;51.38;23.08;;;5.90;99.90;;;;;;4992479;28;20026;-92
2022/12/22 12:45:54;;;;;;;46.88;17.90;;;5.90;99.90;;;;;;4984382;28;20042;-93
2022/12/22 12:48:23;;;;;;;48.72;19.17;;;5.90;99.90;;;;;;4986443;28;20029;-92
2022/12/22 12:50:58;;;;;;;80.72;35.13;;;5.90;99.90;;;;;;4988418;28;20022;-91
2022/12/22 12:53:28;;;;;;;73.47;33.25;;;5.90;99.90;;;;;;4987096;28;20026;-94
2022/12/22 12:56:04;;;;;;;56.47;21.90;;;5.90;99.90;;;;;;4990052;28;20037;-93
2022/12/22 12:58:38;;;;;;;54.50;22.40;;;6.00;99.90;;;;;;4988631;28;20038;-93
2022/12/22 13:01:05;;;;;;;55.42;18.30;;;6.00;99.90;;;;;;4994714;28;20019;-94
2022/12/22 13:03:31;;;;;;;49.97;19.42;;;6.00;99.90;;;;;;5001428;28;20044;-94
2022/12/22 13:06:02;;;;;;;87.03;30.95;;;6.00;99.90;;;;;;4993852;28;20074;-94
2022/12/22 13:09:00;;;;;;;84.90;30.40;;;6.00;99.90;;;;;;4984578;28;20018;-94
2022/12/22 13:11:34;;;;;;;59.63;24.30;;;6.00;99.90;;;;;;4994283;28;20039;-94
2022/12/22 13:14:00;;;;;;;75.68;31.08;;;6.00;99.90;;;;;;5001746;28;20026;-94
2022/12/22 13:16:28;;;;;;;60.95;21.98;;;6.00;99.90;;;;;;4995143;28;20039;-94
2022/12/22 13:18:58;;;;;;;49.97;21.05;;;6.00;99.90;;;;;;4994898;28;20026;-94
2022/12/22 13:21:27;;;;;;;46.00;18.60;;;6.00;99.90;;;;;;4989308;28;20026;-94
2022/12/22 13:24:14;;;;;;;55.47;17.80;;;6.00;99.90;;;;;;4985633;28;20476;-94
2022/12/22 13:26:44;;;;;;;44.92;18.75;;;6.00;99.90;;;;;;4984781;28;20058;-93
2022/12/22 13:29:22;;;;;;;50.63;22.30;;;6.10;99.90;;;;;;4984188;28;20029;-94
2022/12/22 13:31:53;;;;;;;41.67;17.80;;;6.10;99.90;;;;;;4985244;28;20047;-94
2022/12/22 13:34:39;;;;;;;49.85;18.95;;;6.10;99.90;;;;;;4980334;28;20473;-94
2022/12/22 13:37:25;;;;;;;39.75;16.33;;;6.10;99.90;;;;;;4987661;28;20030;-94
2022/12/22 13:40:10;;;;;;;49.92;18.27;;;6.10;99.90;;;;;;5002327;28;20030;-94
2022/12/22 13:43:08;;;;;;;50.75;19.35;;;6.10;99.90;;;;;;4988121;28;20109;-93
2022/12/22 13:46:04;;;;;;;54.03;19.02;;;6.10;99.90;;;;;;4988908;28;20076;-93
2022/12/22 13:48:37;;;;;;;55.22;20.33;;;6.10;99.90;;;;;;4990259;28;20057;-94
2022/12/22 13:51:11;;;;;;;47.33;18.83;;;6.10;99.90;;;;;;4996229;28;20033;-93
2022/12/22 13:53:41;;;;;;;53.25;20.20;;;6.10;99.90;;;;;;4981358;28;20022;-93
2022/12/22 13:56:12;;;;;;;68.13;24.20;;;6.10;99.90;;;;;;5001584;28;20057;-94
2022/12/22 13:58:44;;;;;;;68.35;24.63;;;6.10;99.90;;;;;;4994134;28;20116;-95
2022/12/22 14:01:16;;;;;;;67.70;25.52;;;6.10;99.90;;;;;;4993786;28;20030;-92
2022/12/22 14:04:01;;;;;;;76.05;28.50;;;6.10;99.90;;;;;;4990173;28;20125;-92
2022/12/22 14:06:38;;;;;;;76.97;25.58;;;6.10;99.90;;;;;;4988234;28;20110;-94
2022/12/22 14:09:17;;;;;;;61.28;23.40;;;6.10;99.90;;;;;;4992439;28;20018;-93
2022/12/22 14:11:46;;;;;;;82.72;30.75;;;6.10;99.90;;;;;;4993460;28;20030;-93
2022/12/22 14:14:53;;;;;;;72.55;26.77;;;6.10;99.90;;;;;;4995685;28;20105;-92
2022/12/22 14:17:34;;;;;;;65.65;25.42;;;6.10;99.90;;;;;;4978854;28;20496;-96
2022/12/22 14:20:16;;;;;;;90.43;26.92;;;6.10;99.90;;;;;;4994658;28;20088;-93
2022/12/22 14:22:49;;;;;;;100.57;26.65;;;6.20;99.90;;;;;;4999139;28;20024;-93
2022/12/22 14:25:44;;;;;;;129.77;25.52;;;6.20;99.90;;;;;;4993619;28;20073;-93
2022/12/22 14:28:20;;;;;;;85.97;29.88;;;6.20;99.90;;;;;;4994166;28;20019;-93
2022/12/22 14:30:56;;;;;;;64.45;24.15;;;6.20;99.90;;;;;;5002837;28;20040;-94
2022/12/22 14:33:26;;;;;;;73.32;27.65;;;6.20;99.90;;;;;;4992385;28;20500;-92
2022/12/22 14:36:22;;;;;;;87.60;30.67;;;6.20;99.90;;;;;;4992079;28;20188;-93
2022/12/22 14:39:02;;;;;;;72.00;28.02;;;6.20;99.90;;;;;;4986724;28;20054;-91
2022/12/22 14:41:40;;;;;;;83.83;25.90;;;6.20;99.90;;;;;;4993190;28;20022;-92
2022/12/22 14:44:30;;;;;;;64.38;21.98;;;6.20;99.90;;;;;;4992745;28;20571;-93
2022/12/22 14:47:16;;;;;;;98.75;27.02;;;6.20;99.90;;;;;;4986667;28;20034;-92
2022/12/22 14:49:56;;;;;;;126.22;27.10;;;6.20;99.90;;;;;;4993435;28;20026;-93
2022/12/22 14:52:42;;;;;;;106.40;26.50;;;6.20;99.90;;;;;;4993010;28;20097;-93
2022/12/22 14:55:36;;;;;;;61.80;23.48;;;6.20;99.90;;;;;;5000560;28;20038;-94
2022/12/22 14:58:04;;;;;;;57.70;21.10;;;6.20;99.90;;;;;;5013624;28;20022;-92
2022/12/22 15:00:35;;;;;;;71.47;28.42;;;6.20;99.90;;;;;;4983929;28;20015;-93
2022/12/22 15:03:05;;;;;;;;;;;6.20;99.90;;;;;;4984969;28;20054;-93
2022/12/22 15:05:37;;;;;;;61.25;18.33;;;6.30;99.90;;;;;;4993074;28;19906;-90
2022/12/22 15:08:05;;;;;;;55.45;18.85;;;6.30;99.90;;;;;;4984103;28;20030;-94
2022/12/22 15:10:49;;;;;;;210.13;25.55;;;6.30;99.90;;;;;;4993111;28;20027;-94
2022/12/22 15:13:26;;;;;;;141.15;23.63;;;6.30;99.90;;;;;;4992562;28;20034;-93
2022/12/22 15:15:52;;;;;;;87.35;23.13;;;6.30;99.90;;;;;;4992742;28;20061;-93
2022/12/22 15:18:25;;;;;;;194.68;25.55;;;6.30;99.90;;;;;;4992632;28;20026;-91
2022/12/22 15:20:55;;;;;;;76.05;18.98;;;6.30;99.90;;;;;;4992672;28;20543;-91
2022/12/22 15:23:23;;;;;;;137.35;20.38;;;6.30;99.90;;;;;;4987378;28;20472;-92
2022/12/22 15:25:52;;;;;;;48.08;17.80;;;6.30;99.90;;;;;;4996367;28;20392;-92
2022/12/22 15:28:18;;;;;;;220.73;23.42;;;6.30;99.90;;;;;;4996065;28;20045;-93
2022/12/22 15:30:44;;;;;;;50.88;18.52;;;6.30;99.90;;;;;;4996592;28;20026;-93
2022/12/22 15:33:17;;;;;;;45.15;16.88;;;6.30;99.90;;;;;;4996498;28;20034;-94
2022/12/22 15:35:43;;;;;;;49.58;17.35;;;6.30;99.90;;;;;;5004603;28;20042;-93
2022/12/22 15:38:18;;;;;;;73.97;22.10;;;6.30;99.90;;;;;;4997807;28;20026;-92
2022/12/22 15:40:43;;;;;;;59.65;21.70;;;6.30;99.90;;;;;;4996435;28;20023;-93
2022/12/22 15:43:10;;;;;;;56.45;19.92;;;6.20;99.90;;;;;;5007228;28;20031;-93
2022/12/22 15:45:37;;;;;;;121.45;26.13;;;6.30;99.90;;;;;;4996218;28;20033;-93
2022/12/22 15:48:05;;;;;;;127.57;27.10;;;6.30;99.90;;;;;;5001289;28;20113;-93
2022/12/22 15:50:37;;;;;;;137.20;23.10;;;6.30;99.90;;;;;;4995658;28;20029;-92
2022/12/22 15:53:04;;;;;;;70.22;24.50;;;6.30;99.90;;;;;;4996209;28;20038;-92
2022/12/22 15:55:30;;;;;;;60.25;22.38;;;6.30;99.90;;;;;;4996222;28;20096;-92
2022/12/22 15:57:58;;;;;;;90.30;22.95;;;6.20;99.90;;;;;;4997334;28;20018;-91
2022/12/22 16:00:24;;;;;;;258.80;28.92;;;6.20;99.90;;;;;;5002938;28;20022;-92
2022/12/22 16:02:50;;;;;;;56.97;20.67;;;6.20;99.90;;;;;;5006430;28;20072;-93
2022/12/22 16:05:16;;;;;;;60.90;20.20;;;6.20;99.90;;;;;;5005253;28;20090;-93
2022/12/22 16:07:43;;;;;;;81.32;25.52;;;6.20;99.90;;;;;;5005507;28;20574;-90
2022/12/22 16:10:30;;;;;;;72.75;23.48;;;6.20;99.90;;;;;;4997438;28;20042;-93
2022/12/22 16:12:59;;;;;;;54.97;21.40;;;6.20;99.90;;;;;;4989398;28;20031;-93
2022/12/22 16:15:30;;;;;;;62.20;21.83;;;6.30;99.90;;;;;;4989307;28;20037;-93
2022/12/22 16:18:00;;;;;;;50.22;19.63;;;6.30;99.90;;;;;;4983173;28;20027;-91
2022/12/22 16:20:36;;;;;;;43.67;18.10;;;6.30;99.90;;;;;;4984893;28;20027;-93
2022/12/22 16:23:06;;;;;;;51.42;18.48;;;6.30;99.90;;;;;;4984669;28;20153;-94
2022/12/22 16:25:43;;;;;;;40.30;16.67;;;6.40;99.90;;;;;;4988810;28;20027;-92
2022/12/22 16:28:17;;;;;;;42.83;18.15;;;6.40;99.90;;;;;;4997954;28;20751;-94
2022/12/22 16:30:44;;;;;;;71.88;25.80;;;6.40;99.90;;;;;;4995475;28;20487;-92
2022/12/22 16:33:30;;;;;;;50.17;21.00;;;6.40;99.90;;;;;;4995380;28;20026;-93
2022/12/22 16:35:55;;;;;;;41.83;17.60;;;6.40;99.90;;;;;;4995188;28;20073;-93
2022/12/22 16:38:21;;;;;;;44.55;18.63;;;6.40;99.90;;;;;;4995712;28;20030;-92
2022/12/22 16:40:51;;;;;;;36.92;16.42;;;6.40;99.90;;;;;;5002782;28;20554;-95
2022/12/22 16:43:20;;;;;;;26.23;13.18;;;6.40;99.90;;;;;;4995368;28;20022;-93